createdAt,value
2022-12-06T00:01:25.748Z,97240.50
2022-12-06T00:06:23.363Z,97239.66
2022-12-06T00:11:21.155Z,97240.75
2022-12-06T00:16:18.637Z,97240.97
2022-12-06T00:21:15.324Z,97243.13
2022-12-06T00:26:12.213Z,97238.56
2022-12-06T00:31:08.532Z,97235.47
2022-12-06T00:36:06.574Z,97222.28
2022-12-06T00:41:01.244Z,97226.69
2022-12-06T00:45:54.972Z,97219.03
2022-12-06T00:50:48.564Z,97211.84
2022-12-06T00:55:44.271Z,97210.00
2022-12-06T01:00:37.621Z,97214.75
2022-12-06T01:05:31.386Z,97213.91
2022-12-06T01:10:25.345Z,97211.50
2022-12-06T01:15:20.520Z,97217.63
2022-12-06T01:20:13.942Z,97208.59
2022-12-06T01:25:08.164Z,97207.66
2022-12-06T01:35:10.437Z,97221.34
2022-12-06T01:45:12.395Z,97216.97
2022-12-06T01:50:16.000Z,97213.25
2022-12-06T01:55:16.752Z,97213.69
2022-12-06T02:05:13.176Z,97214.22
2022-12-06T02:15:13.332Z,97211.19
2022-12-06T02:30:40.298Z,97197.16
2022-12-06T02:35:40.668Z,97189.13
2022-12-06T02:45:49.105Z,97186.44
2022-12-06T02:55:52.278Z,97183.88
2022-12-06T03:00:51.559Z,97174.38
2022-12-06T03:06:21.575Z,97172.88
2022-12-06T03:11:16.163Z,97183.38
2022-12-06T04:02:12.376Z,97152.25
2022-12-06T05:56:55.502Z,97107.63
2022-12-06T06:01:48.943Z,97105.47
2022-12-06T06:06:42.295Z,97105.53
2022-12-06T06:11:35.550Z,97111.97
2022-12-06T07:14:11.177Z,97053.59
2022-12-06T07:19:08.879Z,97056.63
2022-12-06T07:24:03.031Z,97047.94
2022-12-06T07:28:57.691Z,97053.78
2022-12-06T09:32:41.828Z,97089.78
2022-12-06T09:48:20.221Z,97087.50
2022-12-06T09:53:27.520Z,97069.22
2022-12-06T09:58:41.408Z,97074.63
2022-12-06T10:09:23.651Z,97069.41
2022-12-06T10:14:41.286Z,97066.75
2022-12-06T10:19:54.848Z,97063.47
2022-12-06T10:25:04.288Z,97058.00
2022-12-06T10:30:03.592Z,97056.72
2022-12-06T10:35:00.493Z,97051.53
2022-12-06T10:40:04.257Z,97050.44
2022-12-06T10:45:28.304Z,97064.88
2022-12-06T10:50:27.509Z,97056.72
2022-12-06T10:55:30.979Z,97058.69
2022-12-06T11:00:28.056Z,97053.78
2022-12-06T11:05:29.693Z,97053.50
2022-12-06T11:10:29.697Z,97052.06
2022-12-06T11:15:27.960Z,97060.91
2022-12-06T11:20:30.014Z,97063.22
2022-12-06T11:25:34.074Z,97053.09
2022-12-06T11:30:30.199Z,97053.19
2022-12-06T11:35:29.481Z,97055.16
2022-12-06T11:40:31.818Z,97039.25
2022-12-06T11:45:31.030Z,97046.84
2022-12-06T11:50:29.153Z,97051.94
2022-12-06T11:55:28.152Z,97054.13
2022-12-06T12:00:24.157Z,97038.97
2022-12-06T12:05:24.149Z,97033.44
2022-12-06T12:10:34.701Z,97023.47
2022-12-06T12:15:29.226Z,97020.38
2022-12-06T12:20:27.966Z,97025.38
2022-12-06T12:25:29.523Z,97032.63
2022-12-06T12:30:36.890Z,97038.06
2022-12-06T12:35:30.406Z,97044.38
2022-12-06T12:40:26.589Z,97034.97
2022-12-06T12:45:22.289Z,97026.00
2022-12-06T12:50:20.903Z,97031.72
2022-12-06T12:55:21.702Z,97032.47
2022-12-06T13:00:18.333Z,97028.22
2022-12-06T13:05:36.788Z,97028.25
2022-12-06T13:10:35.896Z,97031.63
2022-12-06T13:15:37.124Z,97024.03
2022-12-06T13:20:35.410Z,97009.41
2022-12-06T13:25:28.805Z,97003.47
2022-12-06T13:30:25.023Z,96991.16
2022-12-06T13:35:28.208Z,96985.22
2022-12-06T13:40:47.869Z,96977.56
2022-12-06T13:45:45.919Z,96975.78
2022-12-06T13:50:55.817Z,96970.63
2022-12-06T13:56:01.625Z,96964.47
2022-12-06T14:00:57.711Z,96962.72
2022-12-06T14:06:12.130Z,96960.88
2022-12-06T14:11:24.035Z,96965.53
2022-12-06T14:16:27.020Z,96971.41
2022-12-06T14:21:25.515Z,96977.75
2022-12-06T14:26:27.907Z,96970.47
2022-12-06T14:31:30.258Z,96962.19
2022-12-06T14:36:29.407Z,96966.94
2022-12-06T14:41:53.527Z,96985.25
2022-12-06T14:46:49.241Z,96985.94
2022-12-06T14:51:42.698Z,96986.25
2022-12-06T14:56:37.788Z,96978.38
2022-12-06T15:01:32.994Z,96981.13
2022-12-06T15:06:29.826Z,96979.59
2022-12-06T15:11:54.972Z,96987.00
2022-12-06T15:17:00.514Z,96982.72
2022-12-06T15:21:54.611Z,96971.81
2022-12-06T15:26:49.932Z,96965.94
2022-12-06T15:31:47.609Z,96965.41
2022-12-06T15:36:40.947Z,96958.84
2022-12-06T15:41:34.255Z,96961.66
2022-12-06T15:46:32.733Z,96966.38
2022-12-06T15:51:28.355Z,96961.84
2022-12-06T15:56:25.012Z,96979.59
2022-12-06T16:01:22.656Z,96980.66
2022-12-06T16:06:19.861Z,96982.63
2022-12-06T16:11:15.102Z,96981.50
2022-12-06T16:16:09.881Z,96972.38
2022-12-06T16:21:04.041Z,96962.84
2022-12-06T16:25:58.995Z,96969.69
2022-12-06T16:30:52.570Z,96977.72
2022-12-06T16:35:45.949Z,96975.34
2022-12-06T16:40:39.262Z,96977.97
2022-12-06T16:45:37.754Z,96966.56
2022-12-06T16:50:31.098Z,96974.34
2022-12-06T16:55:24.448Z,96971.00
2022-12-06T17:00:19.225Z,96976.47
2022-12-06T17:05:20.039Z,96983.25
2022-12-06T17:10:15.817Z,96983.13
2022-12-06T17:15:12.971Z,96980.94
2022-12-06T17:20:10.070Z,96989.69
2022-12-06T17:25:06.495Z,96992.00
2022-12-06T17:30:00.019Z,96985.72
2022-12-06T17:34:53.358Z,96989.84
2022-12-06T17:39:48.529Z,96991.94
2022-12-06T17:44:43.244Z,96979.19
2022-12-06T17:49:38.423Z,96974.88
2022-12-06T17:54:31.863Z,96982.00
2022-12-06T17:59:27.933Z,96986.38
2022-12-06T18:04:22.615Z,96990.16
2022-12-06T18:09:17.274Z,96982.22
2022-12-06T18:14:12.561Z,96968.72
2022-12-06T18:19:08.808Z,96976.91
2022-12-06T18:29:21.071Z,96984.69
2022-12-06T18:34:14.893Z,96991.13
2022-12-06T18:39:14.955Z,96985.44
2022-12-06T18:44:09.272Z,96986.50
2022-12-06T18:49:02.753Z,96991.47
2022-12-06T18:53:58.685Z,96993.66
2022-12-06T18:58:54.115Z,96995.50
2022-12-06T19:03:48.810Z,97003.56
2022-12-06T19:08:43.469Z,97010.38
2022-12-06T19:13:39.724Z,97003.50
2022-12-06T19:18:34.891Z,96997.75
2022-12-06T19:23:30.002Z,97012.00
2022-12-06T19:28:23.331Z,97011.63
2022-12-06T19:33:16.736Z,97011.78
2022-12-06T19:38:11.508Z,97020.53
2022-12-06T19:43:22.119Z,97023.47
2022-12-06T19:48:16.215Z,97017.78
2022-12-06T19:53:10.923Z,97022.63
2022-12-06T19:58:04.265Z,97018.69
2022-12-06T20:02:57.652Z,97024.00
2022-12-06T20:07:51.103Z,97012.16
2022-12-06T20:12:47.053Z,97013.78
2022-12-06T20:17:40.897Z,97018.13
2022-12-06T20:22:34.192Z,97022.41
2022-12-06T20:27:41.341Z,97027.16
2022-12-06T20:32:35.989Z,97023.03
2022-12-06T20:37:29.269Z,97023.50
2022-12-06T20:42:22.538Z,97029.13
2022-12-06T20:47:15.948Z,97018.50
2022-12-06T20:52:10.803Z,97016.69
2022-12-06T20:57:07.868Z,97022.16
2022-12-06T21:02:01.305Z,97020.03
2022-12-06T21:06:55.657Z,97009.69
2022-12-06T21:11:51.121Z,97015.06
2022-12-06T21:16:45.285Z,97015.63
2022-12-06T21:21:41.994Z,97019.59
2022-12-06T21:26:35.759Z,97021.28
2022-12-06T21:31:32.380Z,97013.59
2022-12-06T21:36:26.496Z,97015.66
2022-12-06T21:41:21.829Z,97020.53
2022-12-06T21:46:17.985Z,97017.53
2022-12-06T21:51:15.515Z,97018.34
2022-12-06T21:56:10.821Z,97023.84
2022-12-06T22:01:09.246Z,97026.78
2022-12-06T22:06:06.151Z,97028.25
2022-12-06T22:11:00.988Z,97019.31
2022-12-06T22:15:54.313Z,97015.75
2022-12-06T22:20:59.322Z,97035.16
2022-12-06T22:25:52.651Z,97026.81
2022-12-06T22:30:47.483Z,97035.00
2022-12-06T22:35:40.856Z,97037.59
2022-12-06T22:40:34.407Z,97018.09
2022-12-06T22:45:27.725Z,97020.59
2022-12-06T22:50:22.434Z,97017.81
2022-12-06T22:55:15.887Z,97023.47
2022-12-06T23:00:10.819Z,97034.66
2022-12-06T23:05:04.158Z,97045.09
2022-12-06T23:09:59.406Z,97046.06
2022-12-06T23:14:52.918Z,97038.19
2022-12-06T23:19:46.160Z,97028.03
2022-12-06T23:24:39.572Z,97033.19
2022-12-06T23:29:34.269Z,97034.38
2022-12-06T23:34:27.737Z,97034.31
2022-12-06T23:39:21.254Z,97037.47
2022-12-06T23:44:15.685Z,97028.50
2022-12-06T23:49:17.962Z,97029.34
2022-12-06T23:54:15.178Z,97031.13
2022-12-06T23:59:14.481Z,97025.81
